Time;durP1;ratioP1;P1;durP2;ratioP2;P2;SDS_P1;SDS_P2;PMS_P1;PMS_P2;Temp;Humidity;BMP_temperature;BMP_pressure;BME280_temperature;BME280_humidity;BME280_pressure;Samples;Min_cycle;Max_cycle;Signal;HPM_P1;HPM_P2
2023/04/19 00:01:23;;;;;;;5.83;4.80;;;14.70;99.90;;;;;;4978242;28;20520;-80
2023/04/19 00:03:49;;;;;;;5.73;3.87;;;14.70;99.90;;;;;;4960716;28;20243;-80
2023/04/19 00:06:16;;;;;;;5.00;4.50;;;14.60;99.90;;;;;;4960793;28;20469;-80
2023/04/19 00:08:42;;;;;;;4.83;4.20;;;14.60;99.90;;;;;;4978079;28;20442;-81
2023/04/19 00:11:09;;;;;;;4.67;4.13;;;14.60;99.90;;;;;;4960903;28;20414;-81
2023/04/19 00:13:34;;;;;;;5.83;4.50;;;14.60;99.90;;;;;;4978476;28;20786;-80
2023/04/19 00:16:01;;;;;;;5.37;4.30;;;14.60;99.90;;;;;;4960643;28;20445;-76
2023/04/19 00:18:27;;;;;;;6.13;4.17;;;14.50;99.90;;;;;;4978423;28;20446;-76
2023/04/19 00:20:52;;;;;;;4.77;4.10;;;14.50;99.90;;;;;;4960524;28;20429;-75
2023/04/19 00:23:18;;;;;;;7.30;4.50;;;14.50;99.90;;;;;;4978194;28;20216;-80
2023/04/19 00:25:48;;;;;;;5.00;4.30;;;14.50;99.90;;;;;;4977758;28;20183;-76
2023/04/19 00:28:13;;;;;;;5.03;4.53;;;14.50;99.90;;;;;;4960226;28;20272;-79
2023/04/19 00:30:39;;;;;;;5.27;4.77;;;14.40;99.90;;;;;;4977767;28;20542;-76
2023/04/19 00:33:11;;;;;;;6.10;5.10;;;14.40;99.90;;;;;;4956802;28;20236;-80
2023/04/19 00:35:41;;;;;;;5.50;4.93;;;14.40;99.90;;;;;;4957409;29;20193;-75
2023/04/19 00:38:06;;;;;;;6.57;5.23;;;14.30;99.90;;;;;;4958382;28;20438;-76
2023/04/19 00:40:32;;;;;;;12.43;5.60;;;14.30;99.90;;;;;;4958300;28;20773;-76
2023/04/19 00:42:58;;;;;;;8.67;5.30;;;14.30;99.90;;;;;;4956986;29;20181;-80
2023/04/19 00:45:24;;;;;;;5.70;4.80;;;14.30;99.90;;;;;;4958162;28;20944;-75
2023/04/19 00:47:51;;;;;;;5.23;4.73;;;14.20;99.90;;;;;;4956127;28;20188;-80
2023/04/19 00:50:16;;;;;;;5.80;4.90;;;14.20;99.90;;;;;;4956753;28;20442;-76
2023/04/19 00:52:43;;;;;;;5.37;4.87;;;14.20;99.90;;;;;;4957914;29;20925;-75
2023/04/19 00:55:09;;;;;;;6.00;5.00;;;14.20;99.90;;;;;;4958053;28;20203;-76
2023/04/19 00:57:36;;;;;;;8.50;5.23;;;14.20;99.90;;;;;;4957982;28;20510;-76
2023/04/19 01:00:05;;;;;;;5.13;4.63;;;14.20;99.90;;;;;;4956472;28;21003;-76
2023/04/19 01:02:31;;;;;;;6.73;4.97;;;14.20;99.90;;;;;;4956768;29;20435;-76
2023/04/19 01:04:57;;;;;;;5.53;5.00;;;14.20;99.90;;;;;;4957672;28;20962;-80
2023/04/19 01:07:22;;;;;;;5.60;5.00;;;14.20;99.90;;;;;;4956569;29;20669;-80
2023/04/19 01:09:48;;;;;;;6.20;4.63;;;14.20;99.90;;;;;;4956413;28;20531;-80
2023/04/19 01:12:14;;;;;;;7.20;5.67;;;14.20;99.90;;;;;;4957921;28;20751;-75
2023/04/19 01:14:40;;;;;;;7.00;5.17;;;14.20;99.90;;;;;;4956337;28;20331;-76
2023/04/19 01:17:07;;;;;;;6.30;5.20;;;14.20;99.90;;;;;;4957781;28;20177;-81
2023/04/19 01:19:33;;;;;;;5.93;5.33;;;14.20;99.90;;;;;;4956251;28;20514;-79
2023/04/19 01:22:01;;;;;;;7.10;5.40;;;14.20;99.90;;;;;;4956301;28;20431;-81
2023/04/19 01:24:27;;;;;;;6.00;5.20;;;14.20;99.90;;;;;;4957419;28;20923;-75
2023/04/19 01:26:53;;;;;;;8.53;5.80;;;14.20;99.90;;;;;;4957524;28;20463;-79
2023/04/19 01:29:20;;;;;;;5.87;5.07;;;14.10;99.90;;;;;;4957308;28;20197;-76
2023/04/19 01:31:52;;;;;;;7.50;5.43;;;14.10;99.90;;;;;;4957268;28;20178;-80
2023/04/19 01:34:24;;;;;;;7.63;5.40;;;14.10;99.90;;;;;;4976677;28;20807;-75
2023/04/19 01:36:50;;;;;;;6.13;5.30;;;14.10;99.90;;;;;;4959255;28;20931;-80
2023/04/19 01:39:16;;;;;;;6.10;5.10;;;14.10;99.90;;;;;;4976448;28;20476;-80
2023/04/19 01:41:41;;;;;;;5.67;5.07;;;14.10;99.90;;;;;;4959033;28;20195;-80
2023/04/19 01:44:07;;;;;;;6.17;5.57;;;14.10;99.90;;;;;;4976212;28;20223;-76
2023/04/19 01:46:33;;;;;;;8.67;5.17;;;14.10;99.90;;;;;;4958935;28;20531;-80
2023/04/19 01:48:59;;;;;;;8.30;5.30;;;14.10;99.90;;;;;;4958768;28;20200;-80
2023/04/19 01:51:25;;;;;;;7.63;5.00;;;14.10;99.90;;;;;;4976274;28;20406;-76
2023/04/19 01:53:52;;;;;;;7.93;4.87;;;14.10;99.90;;;;;;4976187;28;20197;-76
2023/04/19 01:56:18;;;;;;;6.40;5.80;;;14.10;99.90;;;;;;4976140;28;20234;-80
2023/04/19 01:58:44;;;;;;;5.93;5.33;;;14.10;99.90;;;;;;4975998;28;20939;-76
2023/04/19 02:01:12;;;;;;;6.60;5.80;;;14.10;99.90;;;;;;4958829;28;20422;-77
2023/04/19 02:03:39;;;;;;;5.30;4.80;;;14.10;99.90;;;;;;4975962;28;20649;-79
2023/04/19 02:06:04;;;;;;;6.00;5.40;;;14.10;99.90;;;;;;4975941;28;20407;-79
2023/04/19 02:08:30;;;;;;;5.57;4.73;;;14.10;99.90;;;;;;4976137;28;20445;-80
2023/04/19 02:10:56;;;;;;;8.13;6.23;;;14.10;99.90;;;;;;4958518;28;20807;-80
2023/04/19 02:13:21;;;;;;;7.13;5.80;;;14.10;99.90;;;;;;4958596;28;20199;-80
2023/04/19 02:15:48;;;;;;;6.10;5.50;;;14.10;99.90;;;;;;4958460;28;20518;-75
2023/04/19 02:18:13;;;;;;;6.00;5.40;;;14.10;99.90;;;;;;4958561;28;20559;-76
2023/04/19 02:20:39;;;;;;;5.67;5.17;;;14.10;99.90;;;;;;4958476;28;20406;-79
2023/04/19 02:23:05;;;;;;;6.30;5.50;;;14.10;99.90;;;;;;4958414;28;20187;-76
2023/04/19 02:25:31;;;;;;;7.50;5.83;;;14.10;99.90;;;;;;4958229;28;21053;-76
2023/04/19 02:27:57;;;;;;;8.13;5.80;;;14.10;99.90;;;;;;4975872;28;20430;-76
2023/04/19 02:30:22;;;;;;;6.33;5.73;;;14.10;99.90;;;;;;4975634;28;20224;-76
2023/04/19 02:32:48;;;;;;;10.07;6.17;;;14.10;99.90;;;;;;4957896;28;20263;-80
2023/04/19 02:35:15;;;;;;;6.70;6.10;;;14.10;99.90;;;;;;4958074;28;20200;-80
2023/04/19 02:37:41;;;;;;;7.10;5.63;;;14.10;99.90;;;;;;4958240;28;20426;-80
2023/04/19 02:40:07;;;;;;;6.80;6.10;;;14.10;99.90;;;;;;4958063;28;20951;-81
2023/04/19 02:42:33;;;;;;;6.43;5.60;;;14.00;99.90;;;;;;4975605;28;20192;-77
2023/04/19 02:44:59;;;;;;;7.00;5.87;;;14.00;99.90;;;;;;4957824;28;20547;-81
2023/04/19 02:47:24;;;;;;;6.67;6.07;;;14.00;99.90;;;;;;4975586;28;20532;-80
2023/04/19 02:49:50;;;;;;;14.37;8.63;;;14.00;99.90;;;;;;4975218;28;20192;-80
2023/04/19 02:52:16;;;;;;;7.63;5.67;;;14.00;99.90;;;;;;4975455;28;20184;-80
2023/04/19 02:54:41;;;;;;;8.30;6.00;;;14.00;99.90;;;;;;4975204;28;20426;-80
2023/04/19 02:57:07;;;;;;;8.83;5.80;;;14.00;99.90;;;;;;4957940;28;20192;-75
2023/04/19 02:59:33;;;;;;;6.43;5.77;;;14.00;99.90;;;;;;4975094;28;20675;-75
2023/04/19 03:01:58;;;;;;;8.30;6.30;;;14.00;99.90;;;;;;4957813;28;20243;-80
2023/04/19 03:04:24;;;;;;;10.73;5.90;;;13.90;99.90;;;;;;4957728;28;20711;-80
2023/04/19 03:06:51;;;;;;;7.03;5.60;;;13.90;99.90;;;;;;4957601;28;20602;-80
2023/04/19 03:09:17;;;;;;;6.53;5.83;;;13.90;99.90;;;;;;4957609;28;20224;-76
2023/04/19 03:11:42;;;;;;;7.20;6.50;;;13.90;99.90;;;;;;4957267;28;20939;-75
2023/04/19 03:14:08;;;;;;;6.73;5.70;;;14.10;99.90;;;;;;4957411;28;20542;-80
2023/04/19 03:16:34;;;;;;;8.13;6.60;;;14.20;99.90;;;;;;4957539;28;20187;-76
2023/04/19 03:19:00;;;;;;;7.63;5.40;;;14.30;99.90;;;;;;4957694;28;20200;-76
2023/04/19 03:21:27;;;;;;;6.40;5.80;;;14.40;99.90;;;;;;4974909;28;20402;-80
2023/04/19 03:23:54;;;;;;;6.40;5.50;;;14.40;99.90;;;;;;4974719;28;20302;-75
2023/04/19 03:26:20;;;;;;;5.93;5.33;;;14.40;99.90;;;;;;4957446;28;20402;-80
2023/04/19 03:28:47;;;;;;;7.93;6.10;;;14.40;99.90;;;;;;4957440;28;20434;-75
2023/04/19 03:31:13;;;;;;;7.03;6.20;;;14.40;99.90;;;;;;4957342;28;20275;-76
2023/04/19 03:33:39;;;;;;;8.40;6.67;;;14.40;99.90;;;;;;4957467;28;20572;-80
2023/04/19 03:36:05;;;;;;;6.63;5.93;;;14.40;99.90;;;;;;4957401;28;20410;-76
2023/04/19 03:38:31;;;;;;;8.63;6.30;;;14.40;99.90;;;;;;4957475;28;20537;-80
2023/04/19 03:40:57;;;;;;;9.13;7.33;;;14.30;99.90;;;;;;4974612;28;20485;-76
2023/04/19 03:43:23;;;;;;;7.43;6.70;;;14.30;99.90;;;;;;4957521;28;20227;-79
2023/04/19 03:45:49;;;;;;;7.93;6.80;;;14.30;99.90;;;;;;4974620;28;20176;-80
2023/04/19 03:48:15;;;;;;;11.47;8.03;;;14.20;99.90;;;;;;4975071;28;20501;-80
2023/04/19 03:50:41;;;;;;;9.80;7.63;;;14.20;99.90;;;;;;4974729;28;20891;-76
2023/04/19 03:53:06;;;;;;;7.63;6.77;;;14.20;99.90;;;;;;4957461;28;20180;-76
2023/04/19 03:55:32;;;;;;;6.73;6.00;;;14.20;99.90;;;;;;4974130;28;20442;-79
2023/04/19 03:57:58;;;;;;;7.43;6.43;;;14.20;99.90;;;;;;4956645;28;20274;-76
2023/04/19 04:00:23;;;;;;;10.70;7.10;;;14.20;99.90;;;;;;4974482;28;20188;-75
2023/04/19 04:02:49;;;;;;;7.30;6.20;;;14.20;99.90;;;;;;4973546;28;20247;-75
2023/04/19 04:05:15;;;;;;;8.63;6.30;;;14.10;99.90;;;;;;4974366;28;20294;-76
2023/04/19 04:07:41;;;;;;;7.33;6.30;;;14.10;99.90;;;;;;4974745;28;20276;-80
2023/04/19 04:10:07;;;;;;;9.50;6.10;;;14.10;99.90;;;;;;4955642;28;20442;-81
2023/04/19 04:12:33;;;;;;;13.30;6.63;;;14.20;99.90;;;;;;4956320;28;20192;-81
2023/04/19 04:14:58;;;;;;;7.23;6.30;;;14.20;99.90;;;;;;4974112;28;20868;-80
2023/04/19 04:17:24;;;;;;;9.47;7.00;;;14.20;99.90;;;;;;4974244;28;20180;-76
2023/04/19 04:19:50;;;;;;;9.73;6.23;;;14.20;99.90;;;;;;4973996;28;20196;-81
2023/04/19 04:22:16;;;;;;;7.03;6.27;;;14.30;99.90;;;;;;4974577;28;20200;-80
2023/04/19 04:24:42;;;;;;;7.23;5.90;;;14.40;99.90;;;;;;4977290;28;20240;-75
2023/04/19 04:27:09;;;;;;;7.77;6.03;;;14.40;99.90;;;;;;4959974;28;20551;-79
2023/04/19 04:29:38;;;;;;;9.67;6.40;;;14.50;99.90;;;;;;4976366;28;20810;-81
2023/04/19 04:32:09;;;;;;;7.80;6.73;;;14.50;99.90;;;;;;4958575;28;21068;-81
2023/04/19 04:34:36;;;;;;;8.40;7.13;;;14.40;99.90;;;;;;4958506;28;20977;-81
2023/04/19 04:37:02;;;;;;;8.60;6.23;;;14.30;99.90;;;;;;4977457;28;20577;-76
2023/04/19 04:39:29;;;;;;;9.60;7.03;;;14.20;99.90;;;;;;4960214;28;20568;-75
2023/04/19 04:41:56;;;;;;;7.23;6.53;;;14.20;99.90;;;;;;4977628;28;20422;-76
2023/04/19 04:44:22;;;;;;;9.20;6.60;;;14.20;99.90;;;;;;4977320;28;20478;-79
2023/04/19 04:46:48;;;;;;;8.97;7.47;;;14.20;99.90;;;;;;4977379;28;20783;-78
2023/04/19 04:49:14;;;;;;;9.47;7.00;;;14.30;99.90;;;;;;4977212;28;20423;-80
2023/04/19 04:51:40;;;;;;;7.20;6.03;;;14.30;99.90;;;;;;4960028;28;20188;-75
2023/04/19 04:54:05;;;;;;;10.40;7.70;;;14.40;99.90;;;;;;4959047;28;20200;-76
2023/04/19 04:56:31;;;;;;;11.13;7.23;;;14.40;99.90;;;;;;4975633;28;20551;-76
2023/04/19 04:58:57;;;;;;;9.40;7.47;;;14.40;99.90;;;;;;4959057;28;20548;-80
2023/04/19 05:01:22;;;;;;;8.60;7.70;;;14.40;99.90;;;;;;4977089;28;20211;-80
2023/04/19 05:03:49;;;;;;;10.27;7.80;;;14.40;99.90;;;;;;4959276;28;20267;-80
2023/04/19 05:06:14;;;;;;;9.53;8.23;;;14.30;99.90;;;;;;4976546;28;20177;-75
2023/04/19 05:08:40;;;;;;;8.33;7.40;;;14.30;99.90;;;;;;4959479;28;20441;-75
2023/04/19 05:11:06;;;;;;;11.57;8.40;;;14.20;99.90;;;;;;4977046;28;20173;-76
2023/04/19 05:13:31;;;;;;;9.43;7.03;;;14.20;99.90;;;;;;4987424;28;20602;-80
2023/04/19 05:15:57;;;;;;;9.37;7.90;;;14.20;99.90;;;;;;4996435;28;20255;-76
2023/04/19 05:18:23;;;;;;;9.03;7.40;;;14.10;99.90;;;;;;4978582;28;20196;-76
2023/04/19 05:20:49;;;;;;;9.50;8.03;;;14.10;99.90;;;;;;4959291;28;20177;-75
2023/04/19 05:23:14;;;;;;;9.10;8.17;;;14.10;99.90;;;;;;4959307;28;20537;-76
2023/04/19 05:25:40;;;;;;;8.27;7.37;;;14.10;99.90;;;;;;4959397;28;20189;-79
2023/04/19 05:28:06;;;;;;;7.93;7.13;;;14.10;99.90;;;;;;4976834;28;20267;-80
2023/04/19 05:30:31;;;;;;;10.00;9.00;;;14.20;99.90;;;;;;4958836;28;20197;-80
2023/04/19 05:32:57;;;;;;;10.03;8.63;;;14.30;99.90;;;;;;4958337;28;20275;-76
2023/04/19 05:35:23;;;;;;;9.67;7.40;;;14.30;99.90;;;;;;4971667;28;20209;-76
2023/04/19 05:37:49;;;;;;;9.67;8.43;;;14.30;99.90;;;;;;4965515;28;20477;-80
2023/04/19 05:40:15;;;;;;;8.97;8.07;;;14.30;99.90;;;;;;4976282;28;20283;-76
2023/04/19 05:42:40;;;;;;;9.57;8.53;;;14.30;99.90;;;;;;4947215;28;20299;-76
2023/04/19 05:45:07;;;;;;;11.33;8.00;;;14.30;99.90;;;;;;4975177;28;20478;-80
2023/04/19 05:47:33;;;;;;;10.10;8.13;;;14.30;99.90;;;;;;4954664;28;20523;-81
2023/04/19 05:49:58;;;;;;;11.53;8.67;;;14.30;99.90;;;;;;4970710;28;20505;-80
2023/04/19 05:52:24;;;;;;;10.00;7.60;;;14.30;99.90;;;;;;4971865;28;20426;-80
2023/04/19 05:54:49;;;;;;;9.43;8.37;;;14.30;99.90;;;;;;4954965;28;20729;-81
2023/04/19 05:57:15;;;;;;;11.63;8.70;;;14.30;99.90;;;;;;4955711;28;20189;-75
2023/04/19 05:59:41;;;;;;;9.70;8.00;;;14.40;99.90;;;;;;4972517;28;20196;-81
2023/04/19 06:02:07;;;;;;;11.90;8.00;;;14.40;99.90;;;;;;4972952;28;20710;-75
2023/04/19 06:04:32;;;;;;;13.30;8.63;;;14.50;99.90;;;;;;4956002;28;20632;-79
2023/04/19 06:06:58;;;;;;;11.70;9.40;;;14.60;99.90;;;;;;4958032;28;20184;-80
2023/04/19 06:09:23;;;;;;;10.60;8.70;;;14.60;99.90;;;;;;4975581;28;20677;-80
2023/04/19 06:11:49;;;;;;;10.03;9.00;;;14.50;99.90;;;;;;4974497;28;20600;-80
2023/04/19 06:14:15;;;;;;;11.23;8.70;;;14.50;99.90;;;;;;4974181;28;20196;-75
2023/04/19 06:16:41;;;;;;;9.63;8.63;;;14.60;99.90;;;;;;4974216;28;20195;-80
2023/04/19 06:19:07;;;;;;;10.70;9.00;;;14.50;99.90;;;;;;4973795;28;20434;-76
2023/04/19 06:21:33;;;;;;;10.40;8.60;;;14.60;99.90;;;;;;4970331;28;20438;-80
2023/04/19 06:23:59;;;;;;;11.23;9.67;;;14.60;99.90;;;;;;4974254;28;20263;-79
2023/04/19 06:26:25;;;;;;;10.90;9.57;;;14.60;99.90;;;;;;4971068;28;20808;-80
2023/04/19 06:28:51;;;;;;;11.20;9.27;;;14.70;99.90;;;;;;4971963;28;20485;-76
2023/04/19 06:31:16;;;;;;;11.57;9.10;;;14.70;99.90;;;;;;4971552;28;20223;-76
2023/04/19 06:33:42;;;;;;;12.63;9.53;;;14.70;99.90;;;;;;4972000;28;21042;-80
2023/04/19 06:36:09;;;;;;;11.30;9.07;;;14.80;99.90;;;;;;4971715;28;20172;-80
2023/04/19 06:38:37;;;;;;;9.67;8.67;;;14.90;99.90;;;;;;4953147;28;20474;-75
2023/04/19 06:41:03;;;;;;;10.70;9.60;;;15.00;99.90;;;;;;4953654;28;20497;-75
2023/04/19 06:43:29;;;;;;;9.70;8.43;;;15.10;99.90;;;;;;4970289;28;20474;-75
2023/04/19 06:45:59;;;;;;;10.23;8.13;;;15.10;99.90;;;;;;4950828;28;20427;-75
2023/04/19 06:48:25;;;;;;;13.27;9.67;;;15.20;99.90;;;;;;4953156;28;20461;-80
2023/04/19 06:50:50;;;;;;;12.33;8.37;;;15.30;99.90;;;;;;4946050;28;20445;-80
2023/04/19 06:53:16;;;;;;;11.23;8.40;;;15.40;99.90;;;;;;4969142;28;20569;-81
2023/04/19 06:55:42;;;;;;;11.30;8.67;;;15.50;99.90;;;;;;4973621;28;20220;-76
2023/04/19 06:58:09;;;;;;;10.80;8.77;;;15.70;99.90;;;;;;4966780;28;20196;-75
2023/04/19 07:00:38;;;;;;;10.20;8.67;;;15.80;99.90;;;;;;4974900;28;20177;-81
2023/04/19 07:03:04;;;;;;;9.63;8.70;;;15.90;99.90;;;;;;4965853;28;20537;-79
2023/04/19 07:05:30;;;;;;;11.10;8.13;;;16.10;99.90;;;;;;4967479;28;20529;-79
2023/04/19 07:07:56;;;;;;;12.80;7.90;;;16.20;99.90;;;;;;4969778;28;20196;-76
2023/04/19 07:10:22;;;;;;;8.90;7.20;;;16.30;99.90;;;;;;4968585;28;20442;-76
2023/04/19 07:12:48;;;;;;;12.17;7.70;;;16.40;99.90;;;;;;4968000;28;20449;-76
2023/04/19 07:15:14;;;;;;;10.60;7.67;;;16.50;99.90;;;;;;4970005;28;20588;-82
2023/04/19 07:17:41;;;;;;;9.10;8.13;;;16.60;99.90;;;;;;4951741;28;20705;-77
2023/04/19 07:20:08;;;;;;;10.07;8.80;;;16.70;99.90;;;;;;4963832;28;20919;-77
2023/04/19 07:22:34;;;;;;;9.00;7.87;;;16.80;99.90;;;;;;4946629;28;20587;-81
2023/04/19 07:25:00;;;;;;;10.10;7.80;;;17.00;99.90;;;;;;4968214;28;20843;-76
2023/04/19 07:27:26;;;;;;;9.23;8.33;;;17.10;99.90;;;;;;4967034;28;20545;-77
2023/04/19 07:29:52;;;;;;;10.03;8.43;;;17.30;99.90;;;;;;4976485;28;20211;-77
2023/04/19 07:32:18;;;;;;;11.80;8.40;;;17.40;99.90;;;;;;4986882;28;20784;-82
2023/04/19 07:34:44;;;;;;;13.17;8.47;;;17.60;99.90;;;;;;4972461;28;20537;-82
2023/04/19 07:37:11;;;;;;;9.23;7.97;;;17.70;99.90;;;;;;4949034;28;20999;-81
2023/04/19 07:39:37;;;;;;;11.50;8.00;;;17.90;99.90;;;;;;4958844;28;20895;-80
2023/04/19 07:42:03;;;;;;;11.70;10.40;;;17.90;99.90;;;;;;4983238;28;20438;-77
2023/04/19 07:44:28;;;;;;;8.17;7.37;;;17.90;99.90;;;;;;4957985;28;20540;-81
2023/04/19 07:50:16;;;;;;;9.40;8.40;;;18.00;99.90;;;;;;4967171;28;20574;-77
2023/04/19 07:52:42;;;;;;;10.87;7.40;;;18.00;99.90;;;;;;4971109;28;20430;-77
2023/04/19 07:55:08;;;;;;;9.33;7.70;;;18.20;99.90;;;;;;4964901;28;20472;-81
2023/04/19 07:57:34;;;;;;;11.53;7.83;;;18.30;99.90;;;;;;4990624;28;20189;-77
2023/04/19 08:00:01;;;;;;;8.57;7.70;;;18.50;99.90;;;;;;4976216;28;20898;-81
2023/04/19 08:02:26;;;;;;;13.90;11.73;;;18.60;99.90;;;;;;4958835;28;21101;-83
2023/04/19 08:04:53;;;;;;;14.57;11.13;;;18.70;99.90;;;;;;4976121;28;20516;-78
2023/04/19 08:07:19;;;;;;;13.40;11.63;;;18.80;99.90;;;;;;4986515;28;20963;-81
2023/04/19 08:09:44;;;;;;;9.10;8.03;;;18.90;99.90;;;;;;4969776;28;20617;-81
2023/04/19 08:12:10;;;;;;;11.90;9.30;;;19.00;99.90;;;;;;4992698;28;20521;-83
2023/04/19 08:14:38;;;;;;;8.90;8.00;;;19.00;99.90;;;;;;4982491;28;20952;-81
2023/04/19 08:17:04;;;;;;;10.30;9.30;;;19.10;99.90;;;;;;4980801;28;20269;-82
2023/04/19 08:19:30;;;;;;;9.37;8.37;;;19.10;99.90;;;;;;4956977;28;20450;-83
2023/04/19 08:21:56;;;;;;;11.57;7.57;;;19.20;99.90;;;;;;4990734;28;20445;-82
2023/04/19 08:24:22;;;;;;;8.63;7.83;;;19.20;99.90;;;;;;4974326;28;20261;-81
2023/04/19 08:26:52;;;;;;;10.13;6.90;;;19.20;99.90;;;;;;4963803;28;20427;-81
2023/04/19 08:29:19;;;;;;;11.10;7.20;;;19.20;99.90;;;;;;4970012;28;20454;-80
2023/04/19 08:31:45;;;;;;;7.40;6.50;;;19.10;99.90;;;;;;4981183;28;20430;-83
2023/04/19 08:34:11;;;;;;;9.90;7.20;;;19.10;99.90;;;;;;4966227;28;20802;-82
2023/04/19 08:36:37;;;;;;;9.00;7.80;;;19.10;99.90;;;;;;4968636;28;20451;-81
2023/04/19 08:39:02;;;;;;;7.90;7.07;;;19.10;99.90;;;;;;4968326;28;20737;-82
2023/04/19 08:41:30;;;;;;;44.10;34.43;;;19.00;99.90;;;;;;4974119;28;20214;-82
2023/04/19 08:43:58;;;;;;;9.13;7.60;;;19.00;99.90;;;;;;4962682;28;20505;-82
2023/04/19 08:46:25;;;;;;;8.60;7.00;;;19.00;99.90;;;;;;4953780;28;20429;-82
2023/04/19 08:48:53;;;;;;;8.97;7.10;;;19.00;99.90;;;;;;4948480;28;20459;-81
2023/04/19 08:51:19;;;;;;;5.70;5.07;;;19.10;99.90;;;;;;4967380;28;20514;-85
2023/04/19 08:53:44;;;;;;;8.10;5.87;;;19.10;99.90;;;;;;4950520;28;20507;-86
2023/04/19 08:56:11;;;;;;;8.03;7.23;;;19.20;99.90;;;;;;4964010;28;20439;-86
2023/04/19 08:58:37;;;;;;;9.60;6.50;;;19.30;99.90;;;;;;4951578;28;20198;-88
2023/04/19 09:01:04;;;;;;;7.40;5.87;;;19.40;99.90;;;;;;4969717;28;20422;-91
2023/04/19 09:03:31;;;;;;;8.83;7.37;;;19.40;99.90;;;;;;4949804;28;20940;-86
2023/04/19 09:05:59;;;;;;;9.20;7.07;;;19.40;99.90;;;;;;4956149;28;20450;-84
2023/04/19 09:08:29;;;;;;;10.07;7.67;;;19.40;99.90;;;;;;4991730;28;20479;-84
2023/04/19 09:11:00;;;;;;;10.00;6.93;;;19.40;99.90;;;;;;4960292;28;20439;-81
2023/04/19 09:13:27;;;;;;;9.37;6.83;;;19.30;99.90;;;;;;4957411;28;20499;-82
2023/04/19 09:15:55;;;;;;;45.40;28.50;;;19.20;99.90;;;;;;4972628;28;20419;-82
2023/04/19 09:18:23;;;;;;;11.30;8.43;;;19.20;99.90;;;;;;4978187;28;21027;-82
2023/04/19 09:20:49;;;;;;;8.60;6.53;;;19.10;99.90;;;;;;4977348;28;20451;-85
2023/04/19 09:23:17;;;;;;;8.00;6.20;;;19.10;99.90;;;;;;4969207;28;20449;-82
2023/04/19 09:25:56;;;;;;;7.83;6.43;;;19.10;99.90;;;;;;4970665;28;20918;-82
2023/04/19 09:28:22;;;;;;;7.40;6.00;;;19.10;99.90;;;;;;4964753;28;20447;-85
2023/04/19 09:30:49;;;;;;;7.33;6.17;;;19.10;99.90;;;;;;4990081;28;20414;-85
2023/04/19 09:33:45;;;;;;;8.67;5.97;;;19.20;99.90;;;;;;4974209;28;20611;-86
2023/04/19 09:36:25;;;;;;;6.03;5.10;;;19.20;99.90;;;;;;4940604;28;20449;-83
2023/04/19 09:38:51;;;;;;;8.27;6.40;;;19.30;99.90;;;;;;4947940;28;20468;-83
2023/04/19 09:41:17;;;;;;;6.43;5.80;;;19.30;99.90;;;;;;4955352;28;20439;-82
2023/04/19 09:43:43;;;;;;;7.37;6.67;;;19.40;99.90;;;;;;4955335;28;20223;-85
2023/04/19 09:46:28;;;;;;;7.67;5.87;;;19.40;99.90;;;;;;4960920;28;20867;-84
2023/04/19 09:48:54;;;;;;;7.70;6.17;;;19.50;99.90;;;;;;4946489;28;20469;-85
2023/04/19 09:51:20;;;;;;;6.27;5.00;;;19.70;99.90;;;;;;4952903;28;20478;-83
2023/04/19 09:53:48;;;;;;;5.33;4.80;;;19.90;99.90;;;;;;4952899;28;20493;-83
2023/04/19 09:56:13;;;;;;;7.87;5.80;;;20.00;99.90;;;;;;4965150;28;20433;-84
2023/04/19 09:58:39;;;;;;;6.27;5.67;;;20.20;99.90;;;;;;4952068;28;20800;-86
2023/04/19 10:01:10;;;;;;;8.00;6.80;;;20.40;99.90;;;;;;4961563;28;20231;-82
2023/04/19 10:03:36;;;;;;;9.97;6.67;;;20.50;99.90;;;;;;4957009;28;20621;-82
2023/04/19 10:06:02;;;;;;;7.03;6.33;;;20.60;99.90;;;;;;4952608;28;20434;-82
2023/04/19 10:08:29;;;;;;;7.73;6.60;;;20.70;99.90;;;;;;4981205;28;20557;-85
2023/04/19 10:10:55;;;;;;;8.00;6.70;;;20.70;99.90;;;;;;4961862;28;20512;-84
2023/04/19 10:13:22;;;;;;;9.80;7.10;;;20.70;99.90;;;;;;4959204;28;21054;-82
2023/04/19 10:15:48;;;;;;;7.33;6.50;;;20.80;99.90;;;;;;4951370;28;20936;-81
2023/04/19 10:18:14;;;;;;;10.00;7.60;;;20.80;99.90;;;;;;4954080;28;20439;-84
2023/04/19 10:20:54;;;;;;;7.63;6.47;;;20.90;99.90;;;;;;4950547;28;20451;-83
2023/04/19 10:23:21;;;;;;;8.50;7.70;;;21.00;99.90;;;;;;4950592;28;20450;-84
2023/04/19 10:25:47;;;;;;;9.90;7.10;;;20.90;99.90;;;;;;4945842;28;20431;-83
2023/04/19 10:28:16;;;;;;;10.90;7.77;;;21.00;99.90;;;;;;4947188;28;20450;-82
2023/04/19 10:31:02;;;;;;;10.47;8.27;;;21.10;99.90;;;;;;4947334;28;20431;-81
2023/04/19 10:33:36;;;;;;;10.43;9.37;;;21.20;99.90;;;;;;4941023;28;20487;-81
2023/04/19 10:36:02;;;;;;;8.20;7.40;;;21.40;99.90;;;;;;4946214;28;20904;-84
2023/04/19 10:38:54;;;;;;;9.83;7.70;;;21.40;99.90;;;;;;4947739;28;21013;-81
2023/04/19 10:41:20;;;;;;;8.10;7.30;;;21.50;99.90;;;;;;4946012;28;20450;-82
2023/04/19 10:46:20;;;;;;;8.67;7.50;;;21.50;99.90;;;;;;5005753;28;20497;-95
2023/04/19 10:49:06;;;;;;;9.50;6.87;;;21.40;99.70;;;;;;5015974;28;20482;-96
2023/04/19 10:51:37;;;;;;;7.13;6.43;;;21.40;99.90;;;;;;5008764;28;20440;-96
2023/04/19 10:54:30;;;;;;;8.77;7.00;;;21.40;99.50;;;;;;5007788;28;20429;-96
2023/04/19 10:57:17;;;;;;;;;;;;;;;;;;;;;
2023/04/19 11:00:21;;;;;;;7.20;5.70;;;21.60;99.40;;;;;;5017629;28;20897;-96
2023/04/19 11:02:47;;;;;;;6.70;5.83;;;21.60;98.10;;;;;;5012475;28;20447;-96
2023/04/19 11:05:18;;;;;;;8.07;6.03;;;21.50;98.80;;;;;;5008311;28;20538;-96
2023/04/19 11:07:45;;;;;;;8.80;6.30;;;21.60;98.90;;;;;;5009140;28;20205;-96
2023/04/19 11:10:10;;;;;;;6.77;6.10;;;21.60;97.90;;;;;;5006787;28;20449;-96
2023/04/19 11:12:41;;;;;;;8.20;5.93;;;21.70;97.80;;;;;;5014633;28;20767;-95
2023/04/19 11:15:09;;;;;;;7.80;6.77;;;21.80;98.00;;;;;;5004153;28;20462;-95
2023/04/19 11:17:37;;;;;;;9.53;6.97;;;21.90;97.80;;;;;;5007665;28;20564;-95
2023/04/19 11:20:10;;;;;;;7.80;7.00;;;22.00;97.20;;;;;;5025688;28;20447;-95
2023/04/19 11:22:46;;;;;;;7.77;7.07;;;22.00;98.10;;;;;;5013995;28;20436;-96
2023/04/19 11:25:13;;;;;;;8.17;6.70;;;22.10;97.40;;;;;;5018781;28;20583;-96
2023/04/19 11:27:43;;;;;;;7.67;6.97;;;22.10;98.10;;;;;;5012596;28;20449;-96
2023/04/19 11:30:24;;;;;;;9.97;7.40;;;22.20;99.10;;;;;;5017195;28;20471;-95
2023/04/19 11:32:57;;;;;;;9.90;7.57;;;22.20;98.50;;;;;;5020704;28;20479;-96
2023/04/19 11:35:25;;;;;;;6.40;5.80;;;22.20;97.10;;;;;;5017532;28;20461;-95
2023/04/19 11:37:51;;;;;;;6.77;6.17;;;22.10;98.20;;;;;;5037718;23;20541;-83
2023/04/19 11:40:19;;;;;;;9.40;6.43;;;22.20;97.20;;;;;;5002051;28;20459;-82
2023/04/19 11:42:45;;;;;;;6.73;6.10;;;22.20;96.90;;;;;;4983344;28;20429;-82
2023/04/19 11:45:22;;;;;;;7.60;6.43;;;22.20;96.80;;;;;;4986412;28;20488;-82
2023/04/19 11:47:49;;;;;;;7.50;6.73;;;22.10;96.80;;;;;;4986594;28;20436;-82
2023/04/19 11:50:35;;;;;;;6.90;6.30;;;22.00;96.70;;;;;;4977598;28;20741;-83
2023/04/19 11:53:15;;;;;;;8.13;6.83;;;22.00;96.30;;;;;;4980716;28;20803;-84
2023/04/19 11:55:42;;;;;;;8.00;7.20;;;21.80;96.40;;;;;;4986232;28;20503;-85
2023/04/19 11:58:28;;;;;;;7.97;7.20;;;21.60;96.70;;;;;;4989566;28;20446;-82
2023/04/19 12:00:57;;;;;;;9.77;7.97;;;21.40;96.90;;;;;;4986007;28;20445;-81
2023/04/19 12:03:23;;;;;;;9.40;8.40;;;21.30;97.50;;;;;;4987983;28;20511;-82
2023/04/19 12:05:56;;;;;;;9.73;7.77;;;21.20;98.20;;;;;;4985233;28;20468;-82
2023/04/19 12:08:35;;;;;;;7.70;7.00;;;21.10;98.60;;;;;;4988087;28;21146;-84
2023/04/19 12:11:02;;;;;;;8.70;7.73;;;21.00;98.40;;;;;;4985346;28;20576;-83
2023/04/19 12:13:30;;;;;;;8.30;7.00;;;20.90;97.90;;;;;;4981530;28;20448;-84
2023/04/19 12:15:56;;;;;;;7.03;6.33;;;20.90;98.00;;;;;;4997890;28;20477;-81
2023/04/19 12:18:23;;;;;;;8.43;6.90;;;20.90;97.80;;;;;;4990308;28;20438;-81
2023/04/19 12:20:50;;;;;;;8.60;6.87;;;20.90;97.50;;;;;;4989404;28;20469;-84
2023/04/19 12:23:18;;;;;;;11.33;7.50;;;20.80;97.40;;;;;;4985330;28;20437;-81
2023/04/19 12:25:47;;;;;;;7.30;6.40;;;20.70;97.10;;;;;;4984756;28;20586;-84
2023/04/19 12:28:14;;;;;;;7.87;6.33;;;20.60;96.80;;;;;;4990726;28;20464;-84
2023/04/19 12:30:40;;;;;;;6.47;5.70;;;20.60;97.30;;;;;;4990010;28;20606;-84
2023/04/19 12:33:07;;;;;;;7.13;6.43;;;20.50;97.10;;;;;;4990949;28;20514;-82
2023/04/19 12:35:34;;;;;;;7.87;6.80;;;20.50;97.00;;;;;;4983956;28;20453;-82
2023/04/19 12:38:01;;;;;;;8.30;7.47;;;20.50;97.10;;;;;;4983587;28;20507;-84
2023/04/19 12:40:30;;;;;;;8.60;7.70;;;20.50;97.60;;;;;;4992556;28;20546;-85
2023/04/19 12:42:55;;;;;;;8.97;8.00;;;20.40;99.20;;;;;;4987288;28;20441;-85
2023/04/19 12:45:21;;;;;;;10.50;8.80;;;20.30;99.40;;;;;;4997523;28;20858;-82
2023/04/19 12:47:47;;;;;;;9.50;8.03;;;20.10;99.60;;;;;;4985380;28;20253;-84
2023/04/19 12:50:14;;;;;;;9.70;8.80;;;19.90;99.90;;;;;;4986906;28;20204;-85
2023/04/19 12:52:42;;;;;;;10.13;8.47;;;19.80;99.90;;;;;;4989841;28;20802;-84